Time;durP1;ratioP1;P1;durP2;ratioP2;P2;SDS_P1;SDS_P2;PMS_P1;PMS_P2;Temp;Humidity;BMP_temperature;BMP_pressure;BME280_temperature;BME280_humidity;BME280_pressure;Samples;Min_cycle;Max_cycle;Signal;HPM_P1;HPM_P2
2023/02/01 00:00:36;;;;;;;8.02;4.75;;;;;;;3.48;78.58;97252.50;6246032;23;20107;-77
2023/02/01 00:03:05;;;;;;;6.28;4.22;;;;;;;3.49;78.73;97253.31;6245869;23;20024;-77
2023/02/01 00:05:32;;;;;;;7.85;4.70;;;;;;;3.50;78.56;97247.22;6245638;23;20020;-77
2023/02/01 00:08:00;;;;;;;4.38;3.58;;;;;;;3.51;78.40;97241.09;6261477;22;20027;-77
2023/02/01 00:10:29;;;;;;;4.97;4.07;;;;;;;3.50;78.34;97245.47;6276704;22;20024;-77
2023/02/01 00:12:56;;;;;;;5.53;3.90;;;;;;;3.51;78.05;97254.00;6276813;22;20408;-77
2023/02/01 00:15:24;;;;;;;4.85;3.92;;;;;;;3.51;78.12;97246.28;6277464;22;20019;-77
2023/02/01 00:17:54;;;;;;;6.20;4.00;;;;;;;3.51;78.07;97243.69;6275484;22;20020;-77
2023/02/01 00:20:21;;;;;;;6.53;4.45;;;;;;;3.52;77.88;97237.59;6276530;22;20114;-77
2023/02/01 00:22:49;;;;;;;5.47;3.88;;;;;;;3.54;78.32;97237.47;6276335;22;20047;-77
2023/02/01 00:25:17;;;;;;;5.22;3.58;;;;;;;3.57;78.26;97248.38;6276586;22;20023;-77
2023/02/01 00:27:49;;;;;;;4.35;3.47;;;;;;;3.58;77.94;97239.66;6275314;22;20527;-77
2023/02/01 00:30:18;;;;;;;5.30;3.78;;;;;;;3.57;77.63;97225.16;6275973;22;20070;-77
2023/02/01 00:32:46;;;;;;;5.70;3.58;;;;;;;3.55;78.12;97229.59;6276018;22;20059;-77
2023/02/01 00:35:14;;;;;;;5.40;3.30;;;;;;;3.55;77.70;97228.81;6277826;22;20027;-77
2023/02/01 00:37:41;;;;;;;4.35;3.38;;;;;;;3.53;78.18;97222.94;6277067;22;20015;-77
2023/02/01 00:40:10;;;;;;;4.97;3.10;;;;;;;3.53;78.32;97222.94;6276237;22;20102;-77
2023/02/01 00:42:38;;;;;;;6.50;3.67;;;;;;;3.53;78.14;97218.59;6276746;22;20090;-77
2023/02/01 00:45:08;;;;;;;3.88;3.17;;;;;;;3.54;78.13;97215.06;6276166;22;20475;-77
2023/02/01 00:47:36;;;;;;;3.95;2.92;;;;;;;3.55;78.07;97219.28;6276240;22;20095;-77
2023/02/01 00:50:04;;;;;;;4.70;3.22;;;;;;;3.55;77.96;97224.44;6275424;22;20106;-77
2023/02/01 00:52:31;;;;;;;4.03;3.25;;;;;;;3.53;77.64;97218.59;6276406;22;20030;-77
2023/02/01 00:54:59;;;;;;;5.05;3.38;;;;;;;3.55;77.76;97206.41;6276572;22;20020;-77
2023/02/01 00:57:26;;;;;;;3.80;2.97;;;;;;;3.58;77.82;97205.31;6276081;22;20102;-77
2023/02/01 00:59:54;;;;;;;3.47;2.75;;;;;;;3.59;77.83;97201.81;6275739;22;20020;-77
2023/02/01 01:02:23;;;;;;;7.53;3.58;;;;;;;3.60;78.05;97199.09;6276821;22;20103;-77
2023/02/01 01:04:50;;;;;;;3.95;2.90;;;;;;;3.60;77.95;97198.28;6276679;22;20026;-77
2023/02/01 01:07:18;;;;;;;3.38;2.85;;;;;;;3.58;78.12;97190.66;6276392;22;20030;-77
2023/02/01 01:09:45;;;;;;;3.45;2.50;;;;;;;3.57;78.02;97180.47;6275640;22;20024;-77
2023/02/01 01:12:13;;;;;;;4.50;3.78;;;;;;;3.57;78.27;97170.97;6281279;22;20042;-77
2023/02/01 01:14:40;;;;;;;3.40;3.00;;;;;;;3.59;78.05;97176.84;6279706;22;20099;-78
2023/02/01 01:17:08;;;;;;;4.95;3.42;;;;;;;3.58;78.34;97175.19;6279402;22;20102;-77
2023/02/01 01:19:37;;;;;;;4.53;3.50;;;;;;;3.58;78.56;97182.91;6276973;22;20394;-77
2023/02/01 01:22:04;;;;;;;2.58;2.22;;;;;;;3.59;77.87;97173.44;6278792;22;20019;-78
2023/02/01 01:24:32;;;;;;;4.10;2.65;;;;;;;3.58;77.90;97180.34;6278079;22;20020;-77
2023/02/01 01:26:59;;;;;;;3.65;2.90;;;;;;;3.59;77.44;97181.19;6277831;22;20519;-77
2023/02/01 01:29:27;;;;;;;3.65;2.38;;;;;;;3.60;77.45;97183.63;6276669;22;20023;-77
2023/02/01 01:31:55;;;;;;;2.45;2.20;;;;;;;3.63;77.56;97180.81;6278097;22;20026;-77
2023/02/01 01:34:22;;;;;;;2.08;1.90;;;;;;;3.64;77.66;97184.19;6278350;22;20349;-77
2023/02/01 01:36:51;;;;;;;3.13;2.10;;;;;;;3.63;77.39;97182.53;6278185;22;20016;-78
2023/02/01 01:39:19;;;;;;;2.50;2.00;;;;;;;3.62;77.47;97166.25;6277001;22;20103;-77
2023/02/01 01:41:46;;;;;;;3.47;2.40;;;;;;;3.61;77.42;97154.31;6278997;22;20022;-77
2023/02/01 01:44:51;;;;;;;3.40;2.50;;;;;;;3.61;78.09;97138.84;6297799;22;20028;-78
2023/02/01 01:47:19;;;;;;;2.55;2.17;;;;;;;3.60;77.64;97159.59;6288848;22;20098;-77
2023/02/01 01:49:47;;;;;;;2.63;2.13;;;;;;;3.59;77.65;97160.53;6276640;22;20050;-77
2023/02/01 01:52:16;;;;;;;4.85;2.55;;;;;;;3.59;77.69;97166.50;6277647;22;20042;-77
2023/02/01 01:54:47;;;;;;;3.85;2.28;;;;;;;3.60;77.40;97175.06;6278109;22;20543;-77
2023/02/01 01:57:19;;;;;;;3.75;2.40;;;;;;;3.60;77.09;97170.72;6277371;22;20018;-77
2023/02/01 01:59:50;;;;;;;4.00;2.63;;;;;;;3.62;77.48;97175.75;6277036;22;20347;-77
2023/02/01 02:02:18;;;;;;;2.55;1.98;;;;;;;3.60;77.40;97172.50;6277930;22;20015;-77
2023/02/01 02:04:47;;;;;;;2.03;1.83;;;;;;;3.61;77.46;97168.97;6277795;22;20027;-77
2023/02/01 02:07:22;;;;;;;3.50;2.35;;;;;;;3.61;77.53;97161.25;6277564;22;20019;-77
2023/02/01 02:09:50;;;;;;;2.95;2.17;;;;;;;3.61;77.81;97163.81;6276114;22;20102;-77
2023/02/01 02:12:27;;;;;;;2.13;1.92;;;;;;;3.59;77.62;97158.78;6277264;22;20026;-77
2023/02/01 02:14:55;;;;;;;3.03;1.90;;;;;;;3.59;77.75;97147.66;6290538;22;20024;-77
2023/02/01 02:17:32;;;;;;;2.58;1.95;;;;;;;3.59;77.13;97151.03;6296456;22;20050;-77
2023/02/01 02:20:39;;;;;;;2.50;2.10;;;;;;;3.57;77.85;97152.91;6294545;22;20114;-78
2023/02/01 02:23:32;;;;;;;3.03;1.85;;;;;;;3.58;77.83;97149.38;6298179;22;20023;-77
2023/02/01 02:26:30;;;;;;;2.45;1.75;;;;;;;3.58;77.66;97144.22;6289729;22;20030;-77
2023/02/01 02:29:32;;;;;;;3.33;2.08;;;;;;;3.58;77.59;97140.84;6278966;22;20043;-77
2023/02/01 02:32:25;;;;;;;2.28;1.73;;;;;;;3.57;77.85;97139.22;6279959;22;20471;-77
2023/02/01 02:34:57;;;;;;;1.83;1.50;;;;;;;3.57;77.74;97136.63;6279831;22;20020;-77
2023/02/01 02:37:38;;;;;;;1.90;1.50;;;;;;;3.57;77.10;97134.88;6279468;22;20019;-77
2023/02/01 02:40:14;;;;;;;1.88;1.50;;;;;;;3.56;77.55;97140.94;6278051;22;20051;-78
2023/02/01 02:48:30;;;;;;;2.97;1.77;;;;;;;3.57;77.85;97126.31;6277984;22;20019;-78
2023/02/01 03:05:04;;;;;;;2.40;1.48;;;;;;;3.63;77.57;97118.88;6277586;22;20347;-77
2023/02/01 03:07:56;;;;;;;1.70;1.50;;;;;;;3.62;78.06;97104.34;6277484;22;20547;-77
2023/02/01 03:10:30;;;;;;;1.63;1.42;;;;;;;3.60;77.83;97110.56;6277723;22;20020;-77
2023/02/01 03:13:04;;;;;;;1.60;1.50;;;;;;;3.59;77.86;97109.75;6277383;22;20098;-77
2023/02/01 03:15:38;;;;;;;1.75;1.40;;;;;;;3.62;77.00;97119.81;6277782;22;20020;-77
2023/02/01 03:18:11;;;;;;;1.70;1.60;;;;;;;3.64;77.37;97109.38;6276305;22;20047;-77
2023/02/01 03:20:41;;;;;;;2.70;1.40;;;;;;;3.65;77.51;97101.53;6277287;22;20030;-77
2023/02/01 03:23:12;;;;;;;2.15;1.42;;;;;;;3.66;77.59;97105.72;6277262;22;20024;-77
2023/02/01 03:25:41;;;;;;;1.67;1.33;;;;;;;3.68;77.32;97114.16;6277103;22;20047;-77
2023/02/01 03:28:11;;;;;;;1.60;1.20;;;;;;;3.68;77.43;97103.84;6276265;22;20094;-78
2023/02/01 03:30:41;;;;;;;2.88;1.42;;;;;;;3.70;77.14;97101.97;6277005;22;20406;-77
2023/02/01 03:33:21;;;;;;;2.65;1.50;;;;;;;3.72;77.06;97092.31;6276576;22;20037;-77
2023/02/01 03:35:55;;;;;;;1.65;1.20;;;;;;;3.75;77.56;97100.75;6277196;22;20054;-78
2023/02/01 03:38:30;;;;;;;1.42;1.30;;;;;;;3.77;77.54;97096.28;6276284;22;20467;-78
2023/02/01 03:41:04;;;;;;;1.73;1.10;;;;;;;3.77;76.96;97091.13;6276727;22;20428;-77
2023/02/01 03:43:38;;;;;;;1.60;1.50;;;;;;;3.77;77.13;97084.19;6277219;22;20020;-77
2023/02/01 03:46:11;;;;;;;2.47;2.00;;;;;;;3.78;77.12;97077.28;6277116;22;20087;-77
2023/02/01 03:48:40;;;;;;;2.22;1.40;;;;;;;3.76;77.40;97087.75;6275931;22;20069;-77
2023/02/01 03:51:10;;;;;;;1.17;1.10;;;;;;;3.77;76.98;97071.31;6277145;22;20020;-77
2023/02/01 03:53:42;;;;;;;1.42;1.10;;;;;;;3.78;76.58;97057.44;6277120;22;20106;-77
2023/02/01 03:56:11;;;;;;;1.20;1.10;;;;;;;3.79;76.63;97059.09;6276419;22;20479;-77
2023/02/01 03:58:39;;;;;;;1.20;1.13;;;;;;;3.81;76.56;97066.72;6275697;22;20106;-78
2023/02/01 04:01:07;;;;;;;1.35;1.20;;;;;;;3.82;76.44;97079.47;6276791;22;20114;-77
2023/02/01 04:03:35;;;;;;;1.83;1.38;;;;;;;3.84;76.65;97061.28;6276871;22;20023;-77
2023/02/01 04:06:02;;;;;;;1.20;1.10;;;;;;;3.85;76.78;97078.41;6276371;22;20099;-77
2023/02/01 04:08:30;;;;;;;1.98;1.42;;;;;;;3.87;76.13;97077.34;6275441;22;20027;-77
2023/02/01 04:10:59;;;;;;;2.25;1.58;;;;;;;3.89;76.33;97075.44;6276576;22;20020;-77
2023/02/01 04:13:26;;;;;;;3.15;2.08;;;;;;;3.93;76.53;97065.66;6276410;22;20027;-77
2023/02/01 04:15:54;;;;;;;2.65;1.67;;;;;;;3.94;76.20;97064.75;6276489;22;20107;-77
2023/02/01 04:18:21;;;;;;;1.65;1.55;;;;;;;3.95;76.18;97078.47;6276009;22;20020;-77
2023/02/01 04:20:49;;;;;;;2.40;1.45;;;;;;;3.97;76.25;97068.81;6275902;22;20016;-77
2023/02/01 04:23:16;;;;;;;2.67;1.30;;;;;;;3.98;76.22;97071.28;6276253;22;20471;-77
2023/02/01 04:25:44;;;;;;;1.88;1.77;;;;;;;4.00;75.67;97064.22;6276767;22;20098;-77
2023/02/01 04:28:13;;;;;;;1.40;1.30;;;;;;;4.01;76.03;97068.44;6275755;22;20024;-77
2023/02/01 04:30:41;;;;;;;1.65;1.38;;;;;;;4.03;75.90;97068.31;6277557;22;20058;-78
2023/02/01 04:33:08;;;;;;;1.65;1.55;;;;;;;4.02;76.50;97075.22;6279545;22;20020;-78
2023/02/01 04:35:36;;;;;;;1.60;1.50;;;;;;;4.02;76.33;97079.56;6299767;22;20024;-78
2023/02/01 04:38:04;;;;;;;1.60;1.50;;;;;;;4.02;76.33;97080.38;6292626;22;20027;-78
2023/02/01 04:40:31;;;;;;;1.50;1.40;;;;;;;4.02;76.13;97079.56;6276220;22;20016;-77
2023/02/01 04:42:59;;;;;;;2.13;1.58;;;;;;;4.02;75.69;97090.69;6276596;22;20020;-77
2023/02/01 04:45:27;;;;;;;1.65;1.42;;;;;;;4.03;76.32;97089.78;6276505;22;20090;-77
2023/02/01 04:47:55;;;;;;;2.90;1.70;;;;;;;4.04;76.59;97078.50;6277189;22;20023;-77
2023/02/01 04:50:23;;;;;;;1.70;1.50;;;;;;;4.03;77.08;97069.13;6278117;22;20055;-77
2023/02/01 04:52:51;;;;;;;1.58;1.48;;;;;;;4.02;76.84;97059.72;6277542;22;20019;-77
2023/02/01 04:55:19;;;;;;;2.45;2.00;;;;;;;3.99;76.97;97065.16;6278324;22;20356;-77
2023/02/01 04:57:46;;;;;;;1.65;1.55;;;;;;;3.98;77.03;97068.69;6277253;22;20026;-78
2023/02/01 05:00:15;;;;;;;2.17;1.60;;;;;;;4.00;76.71;97073.72;6277729;22;20020;-77
2023/02/01 05:02:44;;;;;;;1.48;1.38;;;;;;;4.00;76.35;97071.97;6278237;22;20026;-77
2023/02/01 05:05:11;;;;;;;1.42;1.33;;;;;;;4.02;76.07;97074.41;6278309;22;20106;-77
2023/02/01 05:07:39;;;;;;;2.25;1.58;;;;;;;4.02;76.43;97074.41;6281640;22;20026;-78
2023/02/01 05:10:07;;;;;;;2.30;1.70;;;;;;;4.03;76.29;97082.03;6301534;22;20050;-78
2023/02/01 05:15:20;;;;;;;2.00;1.80;;;;;;;4.03;76.89;97071.69;6285216;22;20098;-77
2023/02/01 05:17:49;;;;;;;2.30;1.92;;;;;;;4.05;76.85;97076.75;6277048;22;20106;-77
2023/02/01 05:20:17;;;;;;;4.38;2.60;;;;;;;4.06;76.81;97083.53;6277616;22;20095;-78
2023/02/01 05:22:44;;;;;;;2.70;2.40;;;;;;;4.04;76.80;97075.91;6277746;22;20460;-77
2023/02/01 05:25:12;;;;;;;3.40;2.50;;;;;;;4.04;76.96;97078.50;6278231;22;20065;-77
2023/02/01 05:27:39;;;;;;;2.47;1.70;;;;;;;4.07;76.77;97082.59;6277819;22;20054;-77
2023/02/01 05:30:08;;;;;;;2.00;1.80;;;;;;;4.06;76.67;97081.75;6276892;22;20474;-77
2023/02/01 05:32:36;;;;;;;4.82;1.88;;;;;;;4.07;76.91;97087.75;6278352;22;20024;-77
2023/02/01 05:35:07;;;;;;;2.28;2.05;;;;;;;4.08;76.06;97084.22;6279667;22;20044;-76
2023/02/01 05:37:34;;;;;;;1.90;1.70;;;;;;;4.07;75.88;97083.41;6277853;22;20069;-77
2023/02/01 05:40:02;;;;;;;2.05;1.80;;;;;;;4.08;76.45;97082.44;6276336;22;20015;-77
2023/02/01 05:42:30;;;;;;;2.53;1.75;;;;;;;4.08;76.32;97099.72;6277944;22;20054;-77
2023/02/01 05:44:59;;;;;;;2.00;1.60;;;;;;;4.08;76.17;97076.47;6277470;22;20012;-77
2023/02/01 05:47:26;;;;;;;2.95;2.30;;;;;;;4.10;77.13;97077.97;6277322;22;20015;-73
2023/02/01 05:49:54;;;;;;;3.53;2.10;;;;;;;4.09;77.58;97066.03;6275840;22;20093;-74
2023/02/01 05:52:23;;;;;;;2.10;1.80;;;;;;;4.10;76.97;97072.00;6277492;22;20069;-77
2023/02/01 05:54:52;;;;;;;2.33;1.98;;;;;;;4.12;76.25;97078.66;6279087;22;20019;-78
2023/02/01 05:57:20;;;;;;;2.03;1.83;;;;;;;4.13;76.23;97070.00;6297025;22;20004;-79
2023/02/01 05:59:48;;;;;;;4.22;2.25;;;;;;;4.16;75.93;97081.00;6302715;22;20027;-78
2023/02/01 06:02:16;;;;;;;2.03;1.83;;;;;;;4.16;75.72;97092.16;6292672;22;20024;-76
2023/02/01 06:04:44;;;;;;;3.13;1.85;;;;;;;4.16;75.98;97093.91;6277987;22;20054;-76
2023/02/01 06:07:11;;;;;;;3.80;1.90;;;;;;;4.16;75.71;97092.16;6278147;22;20026;-76
2023/02/01 06:09:40;;;;;;;1.75;1.65;;;;;;;4.18;75.55;97092.03;6277100;22;20102;-77
2023/02/01 06:12:08;;;;;;;2.60;2.40;;;;;;;4.18;75.86;97095.41;6278660;22;20098;-77
2023/02/01 06:14:36;;;;;;;4.45;1.75;;;;;;;4.16;75.51;97086.16;6278574;22;20031;-77
2023/02/01 06:17:05;;;;;;;3.50;1.90;;;;;;;4.13;75.70;97082.91;6277325;22;20022;-78
2023/02/01 06:19:33;;;;;;;2.03;1.80;;;;;;;4.11;75.86;97077.03;6276342;22;20039;-77
2023/02/01 06:22:00;;;;;;;3.75;2.05;;;;;;;4.11;76.21;97078.78;6276853;22;20478;-77
2023/02/01 06:24:28;;;;;;;2.75;2.00;;;;;;;4.11;75.85;97086.53;6277023;22;20020;-75
2023/02/01 06:26:57;;;;;;;2.85;2.00;;;;;;;4.10;75.74;97075.41;6276733;22;20085;-76
2023/02/01 06:29:26;;;;;;;1.92;1.60;;;;;;;4.12;75.73;97065.75;6276067;22;20020;-76
2023/02/01 06:31:54;;;;;;;2.38;1.73;;;;;;;4.13;75.73;97072.56;6276779;22;20051;-76
2023/02/01 06:34:22;;;;;;;3.67;2.65;;;;;;;4.12;76.26;97063.19;6277160;22;20043;-76
2023/02/01 06:36:50;;;;;;;2.47;2.10;;;;;;;4.12;75.54;97060.59;6276879;22;20023;-77
2023/02/01 06:39:18;;;;;;;2.53;1.77;;;;;;;4.13;75.64;97061.41;6278145;22;20095;-77
2023/02/01 06:41:46;;;;;;;2.10;1.90;;;;;;;4.12;76.14;97058.00;6275404;22;20016;-77
2023/02/01 06:44:16;;;;;;;1.90;1.60;;;;;;;4.12;75.53;97067.53;6274550;22;20023;-78
2023/02/01 06:46:44;;;;;;;4.55;2.53;;;;;;;4.10;75.30;97062.50;6274393;22;20020;-77
2023/02/01 06:49:11;;;;;;;2.20;2.00;;;;;;;4.09;75.41;97063.44;6273833;22;20023;-77
2023/02/01 06:51:39;;;;;;;2.78;2.38;;;;;;;4.10;75.68;97062.50;6274575;22;20019;-77
2023/02/01 06:54:06;;;;;;;2.88;1.77;;;;;;;4.10;75.10;97066.84;6274707;22;20107;-77
2023/02/01 06:56:34;;;;;;;2.05;1.67;;;;;;;4.09;75.46;97071.19;6274695;22;20018;-77
2023/02/01 06:59:04;;;;;;;2.72;1.73;;;;;;;4.10;75.26;97072.81;6275412;22;20023;-77
2023/02/01 07:01:33;;;;;;;2.28;1.92;;;;;;;4.05;75.47;97074.97;6276999;22;20103;-77
2023/02/01 07:04:01;;;;;;;3.75;1.65;;;;;;;4.06;75.13;97074.00;6276046;22;20024;-78
2023/02/01 07:06:28;;;;;;;3.05;2.25;;;;;;;4.06;75.37;97086.13;6280724;22;20019;-78
2023/02/01 07:08:57;;;;;;;2.90;1.70;;;;;;;4.05;75.16;97089.66;6275044;22;20399;-77
2023/02/01 07:11:27;;;;;;;2.83;1.90;;;;;;;4.05;74.74;97103.38;6276163;22;20028;-77
2023/02/01 07:13:55;;;;;;;2.65;1.98;;;;;;;4.05;74.73;97113.69;6276756;22;20020;-78
2023/02/01 07:16:23;;;;;;;2.47;1.83;;;;;;;4.04;74.53;97104.31;6278136;22;20095;-77
2023/02/01 07:18:53;;;;;;;3.97;1.85;;;;;;;4.03;75.00;97096.72;6275617;22;20026;-78
2023/02/01 07:21:21;;;;;;;2.22;1.90;;;;;;;4.03;75.85;97107.84;6294012;22;20079;-78
2023/02/01 07:23:48;;;;;;;3.05;2.17;;;;;;;4.03;76.05;97113.00;6292650;22;20020;-78
2023/02/01 07:26:16;;;;;;;4.57;2.50;;;;;;;4.03;75.98;97110.44;6277639;22;20030;-77
2023/02/01 07:28:44;;;;;;;3.17;2.35;;;;;;;4.03;76.00;97115.59;6275362;22;20460;-77
2023/02/01 07:31:15;;;;;;;5.65;3.15;;;;;;;4.02;76.19;97126.84;6276202;22;20083;-77
2023/02/01 07:33:43;;;;;;;3.42;2.30;;;;;;;4.01;76.06;97114.09;6276851;22;20024;-77
2023/02/01 07:36:14;;;;;;;2.88;2.30;;;;;;;4.00;76.26;97128.75;6276565;22;20038;-77
2023/02/01 07:38:41;;;;;;;3.95;2.10;;;;;;;3.98;76.56;97135.81;6275423;22;20526;-76
2023/02/01 07:41:09;;;;;;;2.78;2.40;;;;;;;3.97;76.56;97123.03;6275520;22;20479;-77
2023/02/01 07:43:37;;;;;;;2.03;1.83;;;;;;;3.96;76.76;97132.53;6276148;22;20099;-77
2023/02/01 07:46:06;;;;;;;3.72;2.58;;;;;;;3.97;76.55;97139.31;6275987;22;20026;-77
2023/02/01 07:48:34;;;;;;;5.57;2.78;;;;;;;3.96;76.62;97137.72;6275234;22;20431;-77
2023/02/01 07:51:04;;;;;;;5.18;3.00;;;;;;;3.95;77.42;97143.78;6275527;22;20094;-77
2023/02/01 07:53:34;;;;;;;4.68;2.53;;;;;;;3.97;77.27;97133.34;6275552;22;20020;-77
2023/02/01 07:56:02;;;;;;;3.42;2.67;;;;;;;3.96;77.07;97131.69;6275980;22;20054;-77
2023/02/01 07:58:30;;;;;;;4.50;3.15;;;;;;;3.97;77.58;97128.19;6274861;22;20107;-77
2023/02/01 08:03:43;;;;;;;4.95;2.90;;;;;;;4.01;77.29;97130.38;6275691;22;20024;-77
2023/02/01 08:06:10;;;;;;;2.55;2.30;;;;;;;4.00;76.94;97122.75;6276099;22;20095;-77
2023/02/01 08:08:39;;;;;;;6.30;2.55;;;;;;;3.99;77.11;97121.94;6274624;22;20023;-77
2023/02/01 08:11:07;;;;;;;4.38;2.45;;;;;;;4.01;77.32;97108.91;6275719;22;20020;-78
2023/02/01 08:13:35;;;;;;;2.25;2.05;;;;;;;4.02;76.73;97131.19;6275703;22;20023;-77
2023/02/01 08:16:06;;;;;;;3.92;2.67;;;;;;;4.03;76.82;97130.25;6275920;22;20513;-77
2023/02/01 08:18:34;;;;;;;3.95;2.20;;;;;;;4.02;76.63;97142.34;6274852;22;20473;-77
2023/02/01 08:21:04;;;;;;;3.97;2.30;;;;;;;4.03;76.48;97132.84;6277314;22;20051;-77
2023/02/01 08:23:33;;;;;;;3.28;2.90;;;;;;;4.00;76.90;97123.59;6278025;22;20033;-77
2023/02/01 08:26:10;;;;;;;3.83;2.72;;;;;;;4.00;78.17;97113.28;6277774;22;20050;-77
2023/02/01 08:28:38;;;;;;;3.15;2.53;;;;;;;3.97;77.26;97123.03;6277159;22;20027;-77
2023/02/01 08:31:07;;;;;;;3.63;2.75;;;;;;;3.95;77.34;97115.41;6277146;22;20020;-77
2023/02/01 08:33:36;;;;;;;5.20;2.80;;;;;;;3.95;77.45;97128.31;6277672;22;20023;-77
2023/02/01 08:36:05;;;;;;;2.85;2.22;;;;;;;3.97;77.46;97134.16;6277712;22;20102;-77
2023/02/01 08:38:33;;;;;;;2.35;2.15;;;;;;;3.95;77.85;97138.63;6276830;22;20061;-77
2023/02/01 08:41:05;;;;;;;3.80;2.17;;;;;;;3.96;77.62;97131.69;6277410;22;20099;-77
2023/02/01 08:43:34;;;;;;;2.92;2.03;;;;;;;3.95;77.70;97141.22;6278170;22;20023;-77
2023/02/01 08:46:02;;;;;;;4.10;2.20;;;;;;;3.92;77.38;97123.41;6277258;22;20059;-78
2023/02/01 08:48:30;;;;;;;3.17;2.40;;;;;;;3.91;77.77;97130.34;6276472;22;20016;-77
2023/02/01 08:50:58;;;;;;;2.58;1.98;;;;;;;3.90;77.75;97131.28;6277348;22;20484;-77
2023/02/01 08:53:25;;;;;;;4.15;2.30;;;;;;;3.91;77.80;97130.34;6276857;22;20015;-77
2023/02/01 08:55:53;;;;;;;4.63;2.53;;;;;;;3.91;77.79;97137.25;6277491;22;20443;-77
2023/02/01 08:58:21;;;;;;;2.47;2.28;;;;;;;3.88;77.81;97138.31;6276044;22;20024;-77
2023/02/01 09:00:50;;;;;;;3.72;2.65;;;;;;;3.84;78.21;97134.34;6277182;22;20498;-77
2023/02/01 09:03:18;;;;;;;3.03;2.53;;;;;;;3.82;78.17;97148.34;6277198;22;20094;-77
2023/02/01 09:05:46;;;;;;;4.03;3.47;;;;;;;3.79;78.55;97138.28;6277939;22;20026;-77
2023/02/01 09:08:18;;;;;;;6.25;4.65;;;;;;;3.77;78.94;97137.59;6262774;22;20350;-78
2023/02/01 09:10:46;;;;;;;7.07;4.70;;;;;;;3.74;78.79;97153.28;6295390;22;20016;-79
2023/02/01 09:13:13;;;;;;;8.55;4.15;;;;;;;3.68;78.82;97165.75;6302919;22;20047;-79
2023/02/01 09:15:41;;;;;;;6.28;4.20;;;;;;;3.66;79.15;97147.00;6303821;22;20027;-78
2023/02/01 09:18:10;;;;;;;8.75;4.60;;;;;;;3.67;79.50;97148.66;6288847;22;20016;-77
2023/02/01 09:20:38;;;;;;;8.35;5.00;;;;;;;3.69;79.14;97148.50;6280333;22;20043;-77
2023/02/01 09:23:07;;;;;;;4.80;3.67;;;;;;;3.70;79.09;97143.25;6278294;22;20047;-77
2023/02/01 09:25:34;;;;;;;7.28;3.33;;;;;;;3.74;79.44;97135.22;6277840;22;20027;-77
2023/02/01 09:28:03;;;;;;;5.72;2.47;;;;;;;3.80;79.29;97122.66;6276266;22;20098;-77
2023/02/01 09:30:31;;;;;;;3.67;2.90;;;;;;;3.84;79.21;97128.38;6277416;22;20022;-77
2023/02/01 09:32:58;;;;;;;5.55;2.72;;;;;;;3.87;78.98;97134.13;6278024;22;20348;-77
2023/02/01 09:35:27;;;;;;;3.10;2.50;;;;;;;3.91;78.87;97135.50;6278440;22;20090;-77
2023/02/01 09:37:55;;;;;;;5.10;2.50;;;;;;;3.96;78.92;97137.72;6281417;22;20063;-78
2023/02/01 09:40:23;;;;;;;3.72;2.60;;;;;;;4.01;78.89;97140.72;6302209;22;20019;-79
2023/02/01 09:43:12;;;;;;;8.10;2.97;;;;;;;4.07;78.27;97137.63;6298524;22;20023;-78
2023/02/01 09:45:46;;;;;;;2.85;2.28;;;;;;;4.10;78.30;97150.28;6279102;22;20099;-77
2023/02/01 09:48:18;;;;;;;4.25;2.15;;;;;;;4.11;77.47;97149.34;6276421;22;20074;-77
2023/02/01 09:50:50;;;;;;;5.35;3.00;;;;;;;4.15;77.34;97161.97;6277243;22;20022;-77
2023/02/01 09:53:22;;;;;;;;;;;;;;;4.17;77.43;97154.94;6279060;22;20498;-77
2023/02/01 09:55:51;;;;;;;3.35;2.20;;;;;;;4.16;76.83;97184.28;6278414;22;20343;-78
2023/02/01 09:58:23;;;;;;;4.80;2.10;;;;;;;4.16;76.72;97168.78;6276099;22;20147;-77
2023/02/01 10:00:53;;;;;;;3.95;2.45;;;;;;;4.18;76.65;97172.06;6277435;22;20396;-77
2023/02/01 10:03:21;;;;;;;6.38;2.33;;;;;;;4.20;76.47;97173.56;6276893;22;20023;-77
2023/02/01 10:06:14;;;;;;;4.38;2.40;;;;;;;4.24;76.67;97168.94;6277102;22;20030;-77
2023/02/01 10:09:04;;;;;;;3.90;2.10;;;;;;;4.26;77.21;97165.31;6256898;22;20023;-77
2023/02/01 10:11:48;;;;;;;2.67;2.13;;;;;;;4.30;76.46;97178.78;6277377;22;20016;-78
2023/02/01 10:14:43;;;;;;;5.32;2.85;;;;;;;4.34;75.79;97175.00;6277619;22;20359;-77
2023/02/01 10:17:23;;;;;;;6.13;2.65;;;;;;;4.34;75.54;97183.56;6276990;22;20026;-78
2023/02/01 10:19:59;;;;;;;5.68;2.72;;;;;;;4.38;76.46;97189.28;6276129;22;20015;-77
2023/02/01 10:22:40;;;;;;;4.47;2.42;;;;;;;4.39;76.16;97183.16;6276519;22;20455;-77
2023/02/01 10:25:33;;;;;;;3.88;2.17;;;;;;;4.42;76.21;97188.09;6276147;22;20475;-77
2023/02/01 10:28:02;;;;;;;6.70;3.10;;;;;;;4.43;76.43;97184.56;6275630;22;20019;-77
2023/02/01 10:30:36;;;;;;;6.07;2.70;;;;;;;4.44;76.40;97198.28;6276648;22;20043;-77
2023/02/01 10:33:27;;;;;;;3.45;2.03;;;;;;;4.44;75.64;97191.38;6276551;22;20023;-77
2023/02/01 10:36:03;;;;;;;5.20;2.80;;;;;;;4.44;75.97;97195.69;6276408;22;20110;-77
2023/02/01 10:38:34;;;;;;;5.57;2.97;;;;;;;4.41;76.47;97203.72;6275662;22;20016;-77
2023/02/01 10:41:04;;;;;;;3.88;2.60;;;;;;;4.40;76.33;97207.25;6276416;22;20024;-77
2023/02/01 10:43:33;;;;;;;4.50;3.13;;;;;;;4.40;76.07;97194.34;6275965;22;20050;-78
2023/02/01 10:46:01;;;;;;;3.72;2.10;;;;;;;4.39;76.03;97205.59;6276530;22;20387;-77
2023/02/01 10:48:30;;;;;;;6.57;2.42;;;;;;;4.39;76.46;97216.75;6275729;22;20027;-77
2023/02/01 10:51:02;;;;;;;3.10;2.10;;;;;;;4.41;76.63;97220.03;6276014;22;20023;-77
2023/02/01 10:53:37;;;;;;;4.95;2.72;;;;;;;4.42;75.64;97221.69;6275891;22;20102;-77
2023/02/01 10:56:07;;;;;;;3.42;2.13;;;;;;;4.43;76.20;97223.28;6276381;22;20023;-77
2023/02/01 10:58:37;;;;;;;6.13;2.70;;;;;;;4.47;76.09;97223.88;6274725;22;20019;-77
2023/02/01 11:01:07;;;;;;;4.25;1.98;;;;;;;4.48;75.36;97221.16;6276335;22;20042;-77
2023/02/01 11:03:41;;;;;;;5.20;3.38;;;;;;;4.49;74.92;97222.78;6275807;22;20054;-77
2023/02/01 11:06:18;;;;;;;4.22;2.35;;;;;;;4.48;74.26;97216.00;6275931;22;20506;-77
2023/02/01 11:08:50;;;;;;;5.90;2.40;;;;;;;4.47;74.49;97206.59;6275607;22;20098;-77
2023/02/01 11:11:18;;;;;;;2.83;2.10;;;;;;;4.47;74.51;97209.19;6276205;22;20022;-77
2023/02/01 11:13:53;;;;;;;4.03;2.00;;;;;;;4.47;75.29;97210.97;6276226;22;20271;-77
2023/02/01 11:16:21;;;;;;;3.88;2.30;;;;;;;4.47;74.75;97201.44;6276015;22;20095;-77
2023/02/01 11:18:54;;;;;;;6.82;3.22;;;;;;;4.47;76.31;97205.78;6274808;22;20023;-77
2023/02/01 11:21:22;;;;;;;6.80;2.75;;;;;;;4.47;75.13;97206.59;6276209;22;20356;-77
2023/02/01 11:23:51;;;;;;;6.82;2.90;;;;;;;4.49;75.17;97202.13;6276126;22;20016;-77
2023/02/01 11:26:24;;;;;;;6.25;2.88;;;;;;;4.51;74.50;97200.22;6275987;22;20026;-77
2023/02/01 11:28:57;;;;;;;4.50;2.97;;;;;;;4.53;75.30;97193.16;6275092;22;20019;-77
2023/02/01 11:31:26;;;;;;;4.97;2.50;;;;;;;4.57;75.35;97198.06;6275562;22;20463;-77
2023/02/01 11:33:59;;;;;;;7.05;3.03;;;;;;;4.59;75.29;97189.25;6276183;22;20027;-80
2023/02/01 11:36:28;;;;;;;10.38;3.33;;;;;;;4.61;74.71;97195.09;6275499;22;20023;-77
2023/02/01 11:39:19;;;;;;;8.20;3.58;;;;;;;4.59;74.03;97181.50;6275158;22;20142;-77
2023/02/01 11:41:59;;;;;;;5.13;3.00;;;;;;;4.58;73.88;97186.81;6275444;22;20050;-77
2023/02/01 11:44:32;;;;;;;8.77;3.60;;;;;;;4.58;74.11;97184.22;6275837;22;20094;-79
2023/02/01 11:47:19;;;;;;;8.95;3.47;;;;;;;4.61;73.96;97184.75;6275803;22;20016;-77
2023/02/01 11:49:48;;;;;;;7.85;3.78;;;;;;;4.63;74.22;97184.63;6274766;22;20069;-79
2023/02/01 11:52:22;;;;;;;6.72;2.90;;;;;;;4.65;73.85;97182.75;6275577;22;20090;-77
2023/02/01 11:55:11;;;;;;;7.00;2.90;;;;;;;4.63;73.75;97172.53;6275283;22;20012;-77
2023/02/01 11:57:52;;;;;;;7.95;2.80;;;;;;;4.64;73.97;97178.53;6275102;22;20476;-77
2023/02/01 12:00:51;;;;;;;6.15;2.95;;;;;;;4.64;73.90;97173.38;6255942;22;20043;-76
2023/02/01 12:03:40;;;;;;;6.15;2.20;;;;;;;4.60;74.64;97156.50;6245150;23;20031;-76
2023/02/01 12:06:15;;;;;;;4.20;2.50;;;;;;;4.59;74.63;97160.00;6245667;23;20099;-76
2023/02/01 12:09:05;;;;;;;4.95;2.45;;;;;;;4.59;73.65;97149.66;6244604;23;20021;-76
2023/02/01 12:11:48;;;;;;;5.45;2.45;;;;;;;4.61;74.17;97148.59;6215632;23;20421;-75
2023/02/01 12:14:28;;;;;;;5.75;2.38;;;;;;;4.63;72.99;97148.47;6215536;23;20044;-76
2023/02/01 12:17:17;;;;;;;9.15;3.15;;;;;;;4.66;75.06;97145.63;6214860;23;20035;-76
2023/02/01 12:20:00;;;;;;;5.05;2.60;;;;;;;4.68;74.13;97151.47;6214265;23;20027;-76
2023/02/01 12:22:42;;;;;;;5.25;2.40;;;;;;;4.69;73.83;97140.19;6215172;23;20112;-76
2023/02/01 12:25:35;;;;;;;7.65;2.88;;;;;;;4.71;72.89;97127.97;6214830;23;20052;-76